createdAt,value
2022-08-05T00:00:24.229Z,25.29
2022-08-05T00:02:54.305Z,25.37
2022-08-05T00:06:01.838Z,25.36
2022-08-05T00:08:32.541Z,25.31
2022-08-05T00:11:02.404Z,25.36
2022-08-05T00:13:39.098Z,25.19
2022-08-05T00:16:12.228Z,25.10
2022-08-05T00:18:42.558Z,25.02
2022-08-05T00:21:14.468Z,25.00
2022-08-05T00:23:46.408Z,24.98
2022-08-05T00:26:23.110Z,24.93
2022-08-05T00:28:51.907Z,24.88
2022-08-05T00:31:53.046Z,24.82
2022-08-05T00:34:53.261Z,24.85
2022-08-05T00:37:12.833Z,24.81
2022-08-05T00:39:57.436Z,24.58
2022-08-05T00:42:36.846Z,24.61
2022-08-05T00:45:08.473Z,24.61
2022-08-05T00:47:56.728Z,24.57
2022-08-05T00:50:26.069Z,24.50
2022-08-05T00:52:55.122Z,24.48
2022-08-05T00:55:42.281Z,24.55
2022-08-05T00:58:14.579Z,24.64
2022-08-05T01:00:42.754Z,24.66
2022-08-05T01:03:22.261Z,24.55
2022-08-05T01:05:51.636Z,24.57
2022-08-05T01:08:41.991Z,24.50
2022-08-05T01:11:14.735Z,24.58
2022-08-05T01:14:01.139Z,24.44
2022-08-05T01:16:33.915Z,24.49
2022-08-05T01:19:14.319Z,24.43
2022-08-05T01:22:07.003Z,24.38
2022-08-05T01:25:06.705Z,24.31
2022-08-05T01:28:10.438Z,24.30
2022-08-05T01:30:52.426Z,24.35
2022-08-05T01:33:26.154Z,24.41
2022-08-05T01:35:57.791Z,24.41
2022-08-05T01:38:29.966Z,24.28
2022-08-05T01:41:01.476Z,24.13
2022-08-05T01:43:33.485Z,24.15
2022-08-05T01:46:07.166Z,24.09
2022-08-05T01:48:49.581Z,24.08
2022-08-05T01:51:19.878Z,24.12
2022-08-05T01:53:56.915Z,24.07
2022-08-05T01:58:18.880Z,24.08
2022-08-05T01:59:24.518Z,23.90
2022-08-05T02:01:57.778Z,23.94
2022-08-05T02:04:29.963Z,23.93
2022-08-05T02:06:59.858Z,23.88
2022-08-05T02:09:31.825Z,23.80
2022-08-05T02:12:10.104Z,23.83
2022-08-05T02:14:44.018Z,23.78
2022-08-05T02:18:28.383Z,23.69
2022-08-05T02:20:20.788Z,23.72
2022-08-05T02:22:57.182Z,23.67
2022-08-05T02:25:33.324Z,23.55
2022-08-05T02:28:04.347Z,23.36
2022-08-05T02:30:54.071Z,23.19
2022-08-05T02:33:24.373Z,23.31
2022-08-05T02:36:06.308Z,23.33
2022-08-05T02:38:38.700Z,23.21
2022-08-05T02:41:17.331Z,23.19
2022-08-05T02:44:06.392Z,23.18
2022-08-05T02:46:53.218Z,23.30
2022-08-05T02:49:36.723Z,22.99
2022-08-05T02:52:09.138Z,22.97
2022-08-05T02:54:41.442Z,22.93
2022-08-05T02:58:10.735Z,22.93
2022-08-05T03:00:02.749Z,22.72
2022-08-05T03:02:37.741Z,22.54
2022-08-05T03:05:10.346Z,22.86
2022-08-05T03:08:06.716Z,23.00
2022-08-05T03:10:29.049Z,22.91
2022-08-05T03:15:24.654Z,22.53
2022-08-05T03:17:57.803Z,22.30
2022-08-05T03:20:26.415Z,22.41
2022-08-05T03:22:57.677Z,21.93
2022-08-05T03:25:33.176Z,21.83
2022-08-05T03:28:23.888Z,22.11
2022-08-05T03:30:52.202Z,22.32
2022-08-05T03:33:25.089Z,22.20
2022-08-05T03:36:13.611Z,22.20
2022-08-05T03:38:42.989Z,22.09
2022-08-05T03:41:20.675Z,21.63
2022-08-05T03:44:08.666Z,21.60
2022-08-05T03:46:39.844Z,21.76
2022-08-05T03:49:09.336Z,21.43
2022-08-05T03:52:37.212Z,21.06
2022-08-05T03:55:52.150Z,21.47
2022-08-05T03:57:41.500Z,21.53
2022-08-05T04:00:15.907Z,21.38
2022-08-05T04:02:57.750Z,21.67
2022-08-05T04:05:33.202Z,21.42
2022-08-05T04:08:05.760Z,21.45
2022-08-05T04:10:51.077Z,21.13
2022-08-05T04:16:03.004Z,21.47
2022-08-05T04:18:34.325Z,21.27
2022-08-05T04:21:05.026Z,21.41
2022-08-05T04:24:00.229Z,21.52
2022-08-05T04:26:24.055Z,21.76
2022-08-05T04:28:52.969Z,22.01
2022-08-05T04:31:21.411Z,21.88
2022-08-05T04:34:17.403Z,21.60
2022-08-05T04:36:45.812Z,21.54
2022-08-05T04:39:17.856Z,22.07
2022-08-05T04:41:48.176Z,22.18
2022-08-05T04:44:21.591Z,22.38
2022-08-05T04:46:58.496Z,22.41
2022-08-05T04:49:38.608Z,22.52
2022-08-05T04:52:16.604Z,22.69
2022-08-05T04:54:44.810Z,22.82
2022-08-05T04:57:12.957Z,23.03
2022-08-05T04:59:41.157Z,23.04
2022-08-05T05:02:36.357Z,23.03
2022-08-05T05:05:02.175Z,22.89
2022-08-05T05:07:35.327Z,22.75
2022-08-05T05:10:06.602Z,22.77
2022-08-05T05:12:36.776Z,22.70
2022-08-05T05:15:10.657Z,22.92
2022-08-05T05:17:55.541Z,23.39
2022-08-05T05:20:28.364Z,23.56
2022-08-05T05:22:58.973Z,23.49
2022-08-05T05:25:32.827Z,23.56
2022-08-05T05:28:09.274Z,24.05
2022-08-05T05:30:38.274Z,24.44
2022-08-05T05:33:16.226Z,24.57
2022-08-05T05:35:46.731Z,24.86
2022-08-05T05:38:27.112Z,24.67
2022-08-05T05:40:57.018Z,24.78
2022-08-05T05:43:54.169Z,25.05
2022-08-05T05:46:17.509Z,25.39
2022-08-05T05:48:48.838Z,25.57
2022-08-05T05:51:21.655Z,25.86
2022-08-05T05:53:57.657Z,25.82
2022-08-05T05:56:32.386Z,25.70
2022-08-05T05:59:05.862Z,25.76
2022-08-05T06:01:37.349Z,25.93
2022-08-05T06:04:08.339Z,26.17
2022-08-05T06:06:41.687Z,26.11
2022-08-05T06:09:16.712Z,26.22
2022-08-05T06:11:58.963Z,26.47
2022-08-05T06:14:28.822Z,26.38
2022-08-05T06:16:57.922Z,26.43
2022-08-05T06:19:34.910Z,26.10
2022-08-05T06:22:04.433Z,26.33
2022-08-05T06:24:37.645Z,26.69
2022-08-05T06:27:05.932Z,26.98
2022-08-05T06:29:54.346Z,26.81
2022-08-05T06:32:33.934Z,27.28
2022-08-05T06:35:05.943Z,27.71
2022-08-05T06:37:57.601Z,27.55
2022-08-05T06:40:32.308Z,27.97
2022-08-05T06:43:00.815Z,28.03
2022-08-05T06:45:45.055Z,28.08
2022-08-05T06:48:52.777Z,27.80
2022-08-05T06:51:09.409Z,27.43
2022-08-05T06:53:39.261Z,28.21
2022-08-05T06:56:11.694Z,28.51
2022-08-05T06:58:55.454Z,28.44
2022-08-05T07:01:32.070Z,27.73
2022-08-05T07:04:02.462Z,27.12
2022-08-05T07:06:32.196Z,26.97
2022-08-05T07:09:04.291Z,27.05
2022-08-05T07:11:37.305Z,27.02
2022-08-05T07:14:29.513Z,26.92
2022-08-05T07:17:58.595Z,27.25
2022-08-05T07:20:34.074Z,27.25
2022-08-05T07:22:39.183Z,27.38
2022-08-05T07:25:21.697Z,27.47
2022-08-05T07:28:03.784Z,27.82
2022-08-05T07:30:38.563Z,27.78
2022-08-05T07:33:16.621Z,27.62
2022-08-05T07:36:01.624Z,27.78
2022-08-05T07:38:43.601Z,27.99
2022-08-05T07:42:14.677Z,28.21
2022-08-05T07:44:14.464Z,28.01
2022-08-05T07:46:48.449Z,28.04
2022-08-05T07:49:18.554Z,28.35
2022-08-05T07:51:53.863Z,28.18
2022-08-05T07:54:31.667Z,28.06
2022-08-05T07:57:16.706Z,27.72
2022-08-05T07:59:49.011Z,27.90
2022-08-05T08:02:18.093Z,28.24
2022-08-05T08:04:47.924Z,28.22
2022-08-05T08:07:17.921Z,28.86
2022-08-05T08:09:46.865Z,28.77
2022-08-05T08:12:36.960Z,28.11
2022-08-05T08:15:14.278Z,28.62
2022-08-05T08:17:49.893Z,28.69
2022-08-05T08:20:44.370Z,28.93
2022-08-05T08:23:11.599Z,28.38
2022-08-05T08:25:59.679Z,28.88
2022-08-05T08:28:37.215Z,29.04
2022-08-05T08:31:19.177Z,29.58
2022-08-05T08:33:51.787Z,29.70
2022-08-05T08:36:38.967Z,29.30
2022-08-05T08:39:15.109Z,29.04
2022-08-05T08:41:52.393Z,28.68
2022-08-05T08:45:23.433Z,28.85
2022-08-05T08:48:06.277Z,29.14
2022-08-05T08:50:30.469Z,28.87
2022-08-05T08:53:07.870Z,29.77
2022-08-05T08:56:03.979Z,29.15
2022-08-05T08:58:43.857Z,30.24
2022-08-05T09:01:18.122Z,29.82
2022-08-05T09:03:54.440Z,29.20
2022-08-05T09:06:28.108Z,28.45
2022-08-05T09:08:59.781Z,28.77
2022-08-05T09:11:50.454Z,29.23
2022-08-05T09:14:56.854Z,28.78
2022-08-05T09:17:08.129Z,28.68
2022-08-05T09:20:01.911Z,28.80
2022-08-05T09:22:31.252Z,28.44
2022-08-05T09:25:01.722Z,28.17
2022-08-05T09:28:05.961Z,28.02
2022-08-05T09:30:29.978Z,28.09
2022-08-05T09:33:02.600Z,28.31
2022-08-05T09:35:35.825Z,28.60
2022-08-05T09:38:12.938Z,28.63
2022-08-05T09:40:52.016Z,29.06
2022-08-05T09:43:40.977Z,29.36
2022-08-05T09:46:27.593Z,29.18
2022-08-05T09:49:07.955Z,29.42
2022-08-05T09:51:49.409Z,28.98
2022-08-05T09:54:29.008Z,28.92
2022-08-05T09:57:01.474Z,28.60
2022-08-05T09:59:35.082Z,28.96
2022-08-05T10:02:06.143Z,28.86
2022-08-05T10:04:40.913Z,29.04
2022-08-05T10:07:19.833Z,28.95
2022-08-05T10:10:13.844Z,29.72
2022-08-05T10:12:49.628Z,30.27
2022-08-05T10:15:23.824Z,29.87
2022-08-05T10:18:14.624Z,29.80
2022-08-05T10:20:48.395Z,29.95
2022-08-05T10:23:22.171Z,29.59
2022-08-05T10:26:14.196Z,30.15
2022-08-05T10:28:44.878Z,29.64
2022-08-05T10:32:50.523Z,29.23
2022-08-05T10:34:03.919Z,29.48
2022-08-05T10:36:36.410Z,29.39
2022-08-05T10:39:11.879Z,29.21
2022-08-05T10:42:01.174Z,28.90
2022-08-05T10:44:32.259Z,28.71
2022-08-05T10:47:26.949Z,28.78
2022-08-05T10:50:31.980Z,28.38
2022-08-05T10:52:58.762Z,28.23
2022-08-05T10:55:30.446Z,28.49
2022-08-05T10:58:11.200Z,28.64
2022-08-05T11:00:46.539Z,28.71
2022-08-05T11:03:23.392Z,28.37
2022-08-05T11:06:21.085Z,27.86
2022-08-05T11:09:31.988Z,27.41
2022-08-05T11:12:45.385Z,27.61
2022-08-05T11:15:21.515Z,27.25
2022-08-05T11:17:59.345Z,26.39
2022-08-05T11:20:44.249Z,25.32
2022-08-05T11:24:05.689Z,25.41
2022-08-05T11:26:28.671Z,24.88
2022-08-05T11:29:05.161Z,24.72
2022-08-05T11:31:56.930Z,24.82
2022-08-05T11:34:52.242Z,24.92
2022-08-05T11:38:30.622Z,24.80
2022-08-05T11:41:13.976Z,24.48
2022-08-05T11:44:07.080Z,24.63
2022-08-05T11:46:58.727Z,24.37
2022-08-05T11:49:28.723Z,24.25
2022-08-05T11:51:57.541Z,24.47
2022-08-05T11:54:33.214Z,24.54
2022-08-05T11:57:07.987Z,24.35
2022-08-05T11:59:53.206Z,23.92
2022-08-05T12:02:30.335Z,23.95
2022-08-05T12:05:08.144Z,23.80
2022-08-05T12:08:07.859Z,23.92
2022-08-05T12:10:42.970Z,23.90
2022-08-05T12:13:15.771Z,24.02
2022-08-05T12:15:49.990Z,24.00
2022-08-05T12:18:20.578Z,24.27
2022-08-05T12:20:52.422Z,24.20
2022-08-05T12:23:20.564Z,24.37
2022-08-05T12:25:50.805Z,25.01
2022-08-05T12:28:32.995Z,25.30
2022-08-05T12:31:02.325Z,25.55
2022-08-05T12:33:36.266Z,25.54
2022-08-05T12:36:08.407Z,25.59
2022-08-05T12:38:39.750Z,25.65
2022-08-05T12:41:13.077Z,25.47
2022-08-05T12:43:53.289Z,25.85
2022-08-05T12:46:29.487Z,25.89
2022-08-05T12:49:05.902Z,25.51
2022-08-05T12:52:12.353Z,25.25
2022-08-05T12:54:34.522Z,24.91
2022-08-05T12:57:04.285Z,25.07
2022-08-05T13:00:08.522Z,25.57
2022-08-05T13:02:37.353Z,26.19
2022-08-05T13:05:12.583Z,26.60
2022-08-05T13:08:01.030Z,26.19
2022-08-05T13:10:32.934Z,26.63
2022-08-05T13:13:01.087Z,26.64
2022-08-05T13:15:42.117Z,26.73
2022-08-05T13:18:20.235Z,26.93
2022-08-05T13:20:50.409Z,26.68
2022-08-05T13:23:22.908Z,26.50
2022-08-05T13:25:59.575Z,27.05
2022-08-05T13:28:32.179Z,27.36
2022-08-05T13:31:10.913Z,27.09
2022-08-05T13:34:24.989Z,27.49
2022-08-05T13:36:28.894Z,27.87
2022-08-05T13:38:57.269Z,27.95
2022-08-05T13:41:25.780Z,28.05
2022-08-05T13:44:04.594Z,28.36
2022-08-05T13:46:43.815Z,28.31
2022-08-05T13:49:19.378Z,28.54
2022-08-05T13:51:48.899Z,28.19
2022-08-05T13:54:21.198Z,28.29
2022-08-05T13:56:54.329Z,28.76
2022-08-05T13:59:27.138Z,29.27
2022-08-05T14:02:00.792Z,29.39
2022-08-05T14:04:49.738Z,29.34
2022-08-05T14:07:25.560Z,29.74
2022-08-05T14:10:12.050Z,30.05
2022-08-05T14:12:42.667Z,30.20
2022-08-05T14:16:09.327Z,30.34
2022-08-05T14:18:00.789Z,30.23
2022-08-05T14:20:29.548Z,30.59
2022-08-05T14:22:59.511Z,30.52
2022-08-05T14:25:30.278Z,30.43
2022-08-05T14:27:58.803Z,30.50
2022-08-05T14:30:28.346Z,30.67
2022-08-05T14:32:59.126Z,30.04
2022-08-05T14:35:37.327Z,30.34
2022-08-05T14:38:31.935Z,31.20
2022-08-05T14:41:06.906Z,31.38
2022-08-05T14:44:02.361Z,31.39
2022-08-05T14:46:28.794Z,31.30
2022-08-05T14:49:06.586Z,30.82
2022-08-05T14:51:37.670Z,30.28
2022-08-05T14:54:30.058Z,30.09
2022-08-05T14:56:57.060Z,29.52
2022-08-05T14:59:25.385Z,29.31
2022-08-05T15:01:58.683Z,29.57
2022-08-05T15:04:28.996Z,30.21
2022-08-05T15:06:57.430Z,30.36
2022-08-05T15:09:52.588Z,30.07
2022-08-05T15:12:16.732Z,29.92
2022-08-05T15:14:49.869Z,30.11
2022-08-05T15:17:45.861Z,29.54
2022-08-05T15:20:18.473Z,28.55
2022-08-05T15:22:54.362Z,28.55
2022-08-05T15:25:41.344Z,28.35
2022-08-05T15:28:16.210Z,28.26
2022-08-05T15:30:45.836Z,28.09
2022-08-05T15:34:04.145Z,27.98
2022-08-05T15:36:04.675Z,27.83
2022-08-05T15:38:36.610Z,27.82
2022-08-05T15:41:22.707Z,27.61
2022-08-05T15:43:52.071Z,27.38
2022-08-05T15:46:24.882Z,27.34
2022-08-05T15:49:00.833Z,27.17
2022-08-05T15:52:04.198Z,27.08
2022-08-05T15:54:34.692Z,27.05
2022-08-05T15:57:07.425Z,26.93
2022-08-05T15:59:36.343Z,26.79
2022-08-05T16:02:09.748Z,26.83
2022-08-05T16:04:43.435Z,26.86
2022-08-05T16:07:13.334Z,26.78
2022-08-05T16:09:43.502Z,26.63
2022-08-05T16:12:13.148Z,26.60
2022-08-05T16:14:43.901Z,26.50
2022-08-05T16:17:13.048Z,26.54
2022-08-05T16:20:04.198Z,26.36
2022-08-05T16:22:34.036Z,26.34
2022-08-05T16:25:08.201Z,26.30
2022-08-05T16:27:59.848Z,26.33
2022-08-05T16:30:30.702Z,26.24
2022-08-05T16:33:01.331Z,26.14
2022-08-05T16:35:32.449Z,26.13
2022-08-05T16:38:24.700Z,25.93
2022-08-05T16:40:55.036Z,25.91
2022-08-05T16:43:27.678Z,25.81
2022-08-05T16:46:04.678Z,25.60
2022-08-05T16:48:37.945Z,25.37
2022-08-05T16:51:08.939Z,25.31
2022-08-05T16:54:04.998Z,25.10
2022-08-05T16:56:33.753Z,25.25
2022-08-05T16:59:08.522Z,25.22
2022-08-05T17:01:53.217Z,25.12
2022-08-05T17:04:26.351Z,25.32
2022-08-05T17:07:00.211Z,25.42
2022-08-05T17:09:30.074Z,25.37
2022-08-05T17:11:59.747Z,24.85
2022-08-05T17:14:37.362Z,25.09
2022-08-05T17:17:14.398Z,24.63
2022-08-05T17:19:46.065Z,24.48
2022-08-05T17:22:24.862Z,24.33
2022-08-05T17:24:57.943Z,24.06
2022-08-05T17:27:34.544Z,24.20
2022-08-05T17:30:18.691Z,24.42
2022-08-05T17:32:55.883Z,24.59
2022-08-05T17:35:24.113Z,24.59
2022-08-05T17:37:53.155Z,24.22
2022-08-05T17:40:29.321Z,24.47
2022-08-05T17:42:59.837Z,24.40
2022-08-05T17:45:38.566Z,24.35
2022-08-05T17:48:07.901Z,24.52
2022-08-05T17:50:36.485Z,24.37
2022-08-05T17:53:08.484Z,24.59
2022-08-05T17:55:37.845Z,24.69
2022-08-05T17:58:13.337Z,24.42
2022-08-05T18:00:47.120Z,24.38
2022-08-05T18:03:56.327Z,24.23
2022-08-05T18:06:11.925Z,23.94
2022-08-05T18:08:44.901Z,23.87
2022-08-05T18:11:24.473Z,23.66
2022-08-05T18:14:03.496Z,23.53
2022-08-05T18:16:34.095Z,23.36
2022-08-05T18:19:03.379Z,23.22
2022-08-05T18:22:09.800Z,23.11
2022-08-05T18:24:20.986Z,22.81
2022-08-05T18:26:49.266Z,22.84
2022-08-05T18:29:17.564Z,22.43
2022-08-05T18:32:07.582Z,22.34
2022-08-05T18:34:42.897Z,22.34
2022-08-05T18:37:12.107Z,22.36
2022-08-05T18:40:30.896Z,22.23
2022-08-05T18:42:29.547Z,21.75
2022-08-05T18:44:57.837Z,21.61
2022-08-05T18:47:31.042Z,20.87
2022-08-05T18:50:20.025Z,21.00
2022-08-05T18:53:13.206Z,20.83
2022-08-05T18:55:47.530Z,20.88
2022-08-05T18:58:16.481Z,20.89
2022-08-05T19:00:45.094Z,20.62
2022-08-05T19:03:17.725Z,20.47
2022-08-05T19:06:18.471Z,20.12
2022-08-05T19:08:50.529Z,20.21
2022-08-05T19:11:27.967Z,20.09
2022-08-05T19:14:00.613Z,19.91
2022-08-05T19:16:33.104Z,19.87
2022-08-05T19:19:20.777Z,19.95
2022-08-05T19:21:49.987Z,19.85
2022-08-05T19:24:34.901Z,19.78
2022-08-05T19:27:04.115Z,19.79
2022-08-05T19:29:35.954Z,19.92
2022-08-05T19:32:11.246Z,20.00
2022-08-05T19:34:41.947Z,19.86
2022-08-05T19:37:22.682Z,19.75
2022-08-05T19:40:10.038Z,19.82
2022-08-05T19:42:39.051Z,19.74
2022-08-05T19:45:14.372Z,19.59
2022-08-05T19:47:44.009Z,19.70
2022-08-05T19:50:13.859Z,19.73
2022-08-05T19:52:42.442Z,19.29
2022-08-05T19:56:14.497Z,19.78
2022-08-05T19:58:28.272Z,19.76
2022-08-05T20:00:53.054Z,19.70
2022-08-05T20:03:21.450Z,19.46
2022-08-05T20:05:52.560Z,19.56
2022-08-05T20:08:24.473Z,19.38
2022-08-05T20:10:58.100Z,19.30
2022-08-05T20:13:54.493Z,19.34
2022-08-05T20:16:19.576Z,19.24
2022-08-05T20:18:55.533Z,19.39
2022-08-05T20:21:29.539Z,19.59
2022-08-05T20:23:59.768Z,19.41
2022-08-05T20:26:28.733Z,19.57
2022-08-05T20:29:00.677Z,19.74
2022-08-05T20:31:42.134Z,19.70
2022-08-05T20:34:18.937Z,19.41
2022-08-05T20:36:49.601Z,19.41
2022-08-05T20:39:18.363Z,19.41
2022-08-05T20:41:48.253Z,19.42
2022-08-05T20:44:29.478Z,19.34
2022-08-05T20:46:59.040Z,19.66
2022-08-05T20:49:27.453Z,20.08
2022-08-05T20:51:58.088Z,20.16
2022-08-05T20:54:43.080Z,19.80
2022-08-05T20:57:41.860Z,20.11
2022-08-05T21:00:21.094Z,19.67
2022-08-05T21:02:57.703Z,19.83
2022-08-05T21:05:37.999Z,19.69
2022-08-05T21:08:15.693Z,19.73
2022-08-05T21:10:48.577Z,19.40
2022-08-05T21:13:36.796Z,19.14
2022-08-05T21:16:06.546Z,18.97
2022-08-05T21:18:34.701Z,19.01
2022-08-05T21:21:04.407Z,18.97
2022-08-05T21:23:36.995Z,18.78
2022-08-05T21:26:12.418Z,18.84
2022-08-05T21:28:50.551Z,18.72
2022-08-05T21:31:19.227Z,18.83
2022-08-05T21:33:49.443Z,18.80
2022-08-05T21:36:19.183Z,18.82
2022-08-05T21:38:57.424Z,18.82
2022-08-05T21:41:33.020Z,18.43
2022-08-05T21:44:04.457Z,18.77
2022-08-05T21:46:34.275Z,18.80
2022-08-05T21:49:04.786Z,18.80
2022-08-05T21:52:22.059Z,18.68
2022-08-05T21:54:30.620Z,18.79
2022-08-05T21:57:29.608Z,18.59
2022-08-05T22:00:03.910Z,18.60
2022-08-05T22:02:41.819Z,18.57
2022-08-05T22:05:11.258Z,18.65
2022-08-05T22:07:57.957Z,18.74
2022-08-05T22:10:29.424Z,18.61
2022-08-05T22:14:05.176Z,18.64
2022-08-05T22:16:04.680Z,18.23
2022-08-05T22:18:36.225Z,18.35
2022-08-05T22:21:18.833Z,18.41
2022-08-05T22:24:12.825Z,18.39
2022-08-05T22:27:00.359Z,18.11
2022-08-05T22:29:35.073Z,18.21
2022-08-05T22:32:03.615Z,18.20
2022-08-05T22:34:32.902Z,18.24
2022-08-05T22:37:03.972Z,18.17
2022-08-05T22:39:34.556Z,18.33
2022-08-05T22:42:10.231Z,18.46
2022-08-05T22:44:56.924Z,18.44
2022-08-05T22:47:30.032Z,18.24
2022-08-05T22:50:22.816Z,18.26
2022-08-05T22:52:48.643Z,18.23
2022-08-05T22:55:19.466Z,18.03
2022-08-05T22:57:51.019Z,18.15
2022-08-05T23:00:21.487Z,18.08
2022-08-05T23:02:50.308Z,18.01
2022-08-05T23:05:19.188Z,17.88
2022-08-05T23:07:51.158Z,17.79
2022-08-05T23:10:24.017Z,17.84
2022-08-05T23:12:55.898Z,17.92
2022-08-05T23:15:27.142Z,17.83
2022-08-05T23:18:00.761Z,17.89
2022-08-05T23:20:32.346Z,17.81
2022-08-05T23:23:03.631Z,17.88
2022-08-05T23:25:51.551Z,17.66
2022-08-05T23:28:28.722Z,17.73
2022-08-05T23:31:15.839Z,17.68
2022-08-05T23:34:04.306Z,17.72
2022-08-05T23:36:38.420Z,17.79
2022-08-05T23:39:07.368Z,17.48
2022-08-05T23:41:37.385Z,17.58
2022-08-05T23:44:11.096Z,17.65
2022-08-05T23:46:39.566Z,17.60
2022-08-05T23:49:16.879Z,17.54
2022-08-05T23:52:03.465Z,17.42
2022-08-05T23:54:36.359Z,17.27
2022-08-05T23:57:07.900Z,17.33
